sensor_id;sensor_type;location;lat;lon;timestamp;P1;durP1;ratioP1;P2;durP2;ratioP2
32788;SDS011;19141;48.980;8.410;2023-04-24T04:22:32;4.75;;;1.38;;
32788;SDS011;19141;48.980;8.410;2023-04-24T04:25:00;3.10;;;1.70;;
32788;SDS011;19141;48.980;8.410;2023-04-24T04:27:26;2.70;;;1.10;;
32788;SDS011;19141;48.980;8.410;2023-04-24T04:30:00;2.13;;;1.20;;
32788;SDS011;19141;48.980;8.410;2023-04-24T04:32:32;3.55;;;1.70;;
32788;SDS011;19141;48.980;8.410;2023-04-24T04:34:59;3.35;;;1.70;;
32788;SDS011;19141;48.980;8.410;2023-04-24T04:37:33;2.50;;;1.50;;
32788;SDS011;19141;48.980;8.410;2023-04-24T04:40:10;2.22;;;1.30;;
32788;SDS011;19141;48.980;8.410;2023-04-24T04:42:44;1.55;;;1.20;;
32788;SDS011;19141;48.980;8.410;2023-04-24T04:45:11;5.30;;;2.70;;
32788;SDS011;19141;48.980;8.410;2023-04-24T04:47:50;4.88;;;2.97;;
32788;SDS011;19141;48.980;8.410;2023-04-24T04:50:16;3.70;;;1.85;;
32788;SDS011;19141;48.980;8.410;2023-04-24T04:52:45;2.25;;;1.80;;
32788;SDS011;19141;48.980;8.410;2023-04-24T04:55:20;3.40;;;1.70;;
32788;SDS011;19141;48.980;8.410;2023-04-24T04:58:04;2.80;;;1.60;;
32788;SDS011;19141;48.980;8.410;2023-04-24T05:00:30;2.90;;;1.50;;
32788;SDS011;19141;48.980;8.410;2023-04-24T05:03:01;2.05;;;1.50;;
32788;SDS011;19141;48.980;8.410;2023-04-24T05:05:27;3.13;;;1.80;;
32788;SDS011;19141;48.980;8.410;2023-04-24T05:07:53;7.10;;;2.10;;
32788;SDS011;19141;48.980;8.410;2023-04-24T05:10:19;3.33;;;2.13;;
32788;SDS011;19141;48.980;8.410;2023-04-24T05:12:46;4.63;;;1.98;;
32788;SDS011;19141;48.980;8.410;2023-04-24T05:15:11;4.32;;;1.80;;
32788;SDS011;19141;48.980;8.410;2023-04-24T05:17:36;2.95;;;1.80;;
32788;SDS011;19141;48.980;8.410;2023-04-24T05:20:03;3.05;;;1.67;;
32788;SDS011;19141;48.980;8.410;2023-04-24T05:22:32;3.20;;;2.00;;
32788;SDS011;19141;48.980;8.410;2023-04-24T05:24:58;2.33;;;1.77;;
32788;SDS011;19141;48.980;8.410;2023-04-24T05:27:34;4.05;;;1.60;;
32788;SDS011;19141;48.980;8.410;2023-04-24T05:30:02;1.38;;;1.27;;
32788;SDS011;19141;48.980;8.410;2023-04-24T05:32:29;3.33;;;1.60;;
32788;SDS011;19141;48.980;8.410;2023-04-24T05:34:55;3.22;;;1.83;;
32788;SDS011;19141;48.980;8.410;2023-04-24T05:37:21;2.00;;;1.40;;
32788;SDS011;19141;48.980;8.410;2023-04-24T05:39:46;2.40;;;1.63;;
32788;SDS011;19141;48.980;8.410;2023-04-24T05:42:12;3.72;;;1.70;;
32788;SDS011;19141;48.980;8.410;2023-04-24T05:44:37;1.55;;;1.20;;
32788;SDS011;19141;48.980;8.410;2023-04-24T05:47:03;3.67;;;1.98;;
32788;SDS011;19141;48.980;8.410;2023-04-24T05:49:29;3.50;;;2.00;;
32788;SDS011;19141;48.980;8.410;2023-04-24T05:51:55;1.60;;;1.30;;
32788;SDS011;19141;48.980;8.410;2023-04-24T05:54:21;3.70;;;1.80;;
32788;SDS011;19141;48.980;8.410;2023-04-24T05:56:46;1.77;;;1.50;;
32788;SDS011;19141;48.980;8.410;2023-04-24T05:59:17;2.85;;;1.60;;
32788;SDS011;19141;48.980;8.410;2023-04-24T06:01:44;3.05;;;1.40;;
32788;SDS011;19141;48.980;8.410;2023-04-24T06:04:17;2.15;;;1.10;;
32788;SDS011;19141;48.980;8.410;2023-04-24T06:06:42;1.67;;;1.13;;
32788;SDS011;19141;48.980;8.410;2023-04-24T06:09:08;1.75;;;1.20;;
32788;SDS011;19141;48.980;8.410;2023-04-24T06:11:33;2.33;;;1.33;;
32788;SDS011;19141;48.980;8.410;2023-04-24T06:13:59;5.00;;;1.60;;
32788;SDS011;19141;48.980;8.410;2023-04-24T06:16:36;4.85;;;1.58;;
32788;SDS011;19141;48.980;8.410;2023-04-24T06:19:11;2.10;;;1.30;;
32788;SDS011;19141;48.980;8.410;2023-04-24T06:21:36;2.20;;;1.20;;
32788;SDS011;19141;48.980;8.410;2023-04-24T06:24:03;3.83;;;1.63;;
32788;SDS011;19141;48.980;8.410;2023-04-24T06:26:30;2.92;;;1.75;;
32788;SDS011;19141;48.980;8.410;2023-04-24T06:28:55;6.20;;;1.95;;
32788;SDS011;19141;48.980;8.410;2023-04-24T06:31:21;1.58;;;1.23;;
32788;SDS011;19141;48.980;8.410;2023-04-24T06:33:48;2.05;;;1.52;;
32788;SDS011;19141;48.980;8.410;2023-04-24T06:36:13;3.03;;;1.52;;
32788;SDS011;19141;48.980;8.410;2023-04-24T06:38:39;2.22;;;1.73;;
32788;SDS011;19141;48.980;8.410;2023-04-24T06:41:04;2.35;;;1.52;;
32788;SDS011;19141;48.980;8.410;2023-04-24T06:43:30;1.70;;;1.17;;
32788;SDS011;19141;48.980;8.410;2023-04-24T06:45:57;2.22;;;1.60;;
32788;SDS011;19141;48.980;8.410;2023-04-24T06:48:23;4.25;;;1.48;;
32788;SDS011;19141;48.980;8.410;2023-04-24T06:50:50;3.80;;;1.73;;
32788;SDS011;19141;48.980;8.410;2023-04-24T06:53:15;1.98;;;1.40;;
32788;SDS011;19141;48.980;8.410;2023-04-24T06:55:41;2.55;;;1.60;;
32788;SDS011;19141;48.980;8.410;2023-04-24T06:58:08;2.00;;;1.57;;
32788;SDS011;19141;48.980;8.410;2023-04-24T07:00:33;2.25;;;1.20;;
32788;SDS011;19141;48.980;8.410;2023-04-24T07:02:59;2.90;;;1.50;;
32788;SDS011;19141;48.980;8.410;2023-04-24T07:05:25;2.17;;;1.88;;
32788;SDS011;19141;48.980;8.410;2023-04-24T07:07:50;4.55;;;1.60;;
32788;SDS011;19141;48.980;8.410;2023-04-24T07:10:16;3.78;;;1.67;;
32788;SDS011;19141;48.980;8.410;2023-04-24T07:12:42;2.47;;;1.58;;
32788;SDS011;19141;48.980;8.410;2023-04-24T07:15:07;3.30;;;1.88;;
32788;SDS011;19141;48.980;8.410;2023-04-24T07:17:33;2.92;;;2.15;;
32788;SDS011;19141;48.980;8.410;2023-04-24T07:19:59;2.90;;;1.42;;
32788;SDS011;19141;48.980;8.410;2023-04-24T07:22:25;1.83;;;1.27;;
32788;SDS011;19141;48.980;8.410;2023-04-24T07:24:50;1.75;;;1.48;;
32788;SDS011;19141;48.980;8.410;2023-04-24T07:27:16;2.05;;;1.42;;
32788;SDS011;19141;48.980;8.410;2023-04-24T07:29:41;1.98;;;1.45;;
32788;SDS011;19141;48.980;8.410;2023-04-24T07:32:07;2.50;;;1.40;;
32788;SDS011;19141;48.980;8.410;2023-04-24T07:34:33;1.92;;;1.13;;
32788;SDS011;19141;48.980;8.410;2023-04-24T07:36:58;3.50;;;1.05;;
32788;SDS011;19141;48.980;8.410;2023-04-24T07:39:24;1.38;;;1.25;;
32788;SDS011;19141;48.980;8.410;2023-04-24T07:41:50;1.40;;;1.13;;
32788;SDS011;19141;48.980;8.410;2023-04-24T07:44:15;1.48;;;1.00;;
32788;SDS011;19141;48.980;8.410;2023-04-24T07:46:40;1.73;;;1.10;;
32788;SDS011;19141;48.980;8.410;2023-04-24T07:49:06;1.10;;;1.00;;
32788;SDS011;19141;48.980;8.410;2023-04-24T07:51:31;1.38;;;1.05;;
32788;SDS011;19141;48.980;8.410;2023-04-24T07:56:24;1.55;;;1.02;;
32788;SDS011;19141;48.980;8.410;2023-04-24T07:58:50;1.75;;;0.95;;
32788;SDS011;19141;48.980;8.410;2023-04-24T08:01:15;1.95;;;1.02;;
32788;SDS011;19141;48.980;8.410;2023-04-24T08:03:41;1.50;;;1.00;;
32788;SDS011;19141;48.980;8.410;2023-04-24T08:06:06;1.55;;;1.00;;
32788;SDS011;19141;48.980;8.410;2023-04-24T08:08:31;1.95;;;1.13;;
32788;SDS011;19141;48.980;8.410;2023-04-24T08:10:57;1.77;;;1.00;;
32788;SDS011;19141;48.980;8.410;2023-04-24T08:13:23;1.15;;;0.93;;
32788;SDS011;19141;48.980;8.410;2023-04-24T08:15:48;2.10;;;1.02;;
32788;SDS011;19141;48.980;8.410;2023-04-24T08:18:14;0.80;;;0.80;;
32788;SDS011;19141;48.980;8.410;2023-04-24T08:20:40;1.05;;;0.90;;
32788;SDS011;19141;48.980;8.410;2023-04-24T08:23:06;1.73;;;1.08;;
32788;SDS011;19141;48.980;8.410;2023-04-24T08:25:32;1.33;;;1.20;;
32788;SDS011;19141;48.980;8.410;2023-04-24T08:27:57;1.02;;;0.80;;
32788;SDS011;19141;48.980;8.410;2023-04-24T08:30:23;0.85;;;0.82;;
32788;SDS011;19141;48.980;8.410;2023-04-24T08:32:48;1.42;;;0.90;;
32788;SDS011;19141;48.980;8.410;2023-04-24T08:35:14;2.95;;;1.20;;
32788;SDS011;19141;48.980;8.410;2023-04-24T08:37:39;0.90;;;0.90;;
32788;SDS011;19141;48.980;8.410;2023-04-24T08:40:15;1.25;;;1.15;;
32788;SDS011;19141;48.980;8.410;2023-04-24T08:42:42;1.38;;;1.20;;
32788;SDS011;19141;48.980;8.410;2023-04-24T08:45:09;6.90;;;1.60;;
32788;SDS011;19141;48.980;8.410;2023-04-24T08:47:35;2.40;;;1.42;;
32788;SDS011;19141;48.980;8.410;2023-04-24T08:50:02;1.75;;;1.15;;
32788;SDS011;19141;48.980;8.410;2023-04-24T08:52:32;1.20;;;1.00;;
32788;SDS011;19141;48.980;8.410;2023-04-24T08:54:58;2.30;;;1.25;;
32788;SDS011;19141;48.980;8.410;2023-04-24T08:57:25;1.10;;;0.95;;
32788;SDS011;19141;48.980;8.410;2023-04-24T08:59:51;1.30;;;1.05;;
32788;SDS011;19141;48.980;8.410;2023-04-24T09:02:18;0.77;;;0.77;;
32788;SDS011;19141;48.980;8.410;2023-04-24T09:04:44;1.50;;;0.90;;
32788;SDS011;19141;48.980;8.410;2023-04-24T09:07:11;1.10;;;1.00;;
32788;SDS011;19141;48.980;8.410;2023-04-24T09:09:37;1.50;;;1.20;;
32788;SDS011;19141;48.980;8.410;2023-04-24T09:12:03;2.17;;;1.23;;
32788;SDS011;19141;48.980;8.410;2023-04-24T09:14:29;1.20;;;0.90;;
32788;SDS011;19141;48.980;8.410;2023-04-24T09:16:57;1.33;;;0.80;;
32788;SDS011;19141;48.980;8.410;2023-04-24T09:19:22;1.13;;;0.98;;
32788;SDS011;19141;48.980;8.410;2023-04-24T09:21:48;1.08;;;0.98;;
32788;SDS011;19141;48.980;8.410;2023-04-24T09:24:17;1.00;;;0.90;;
32788;SDS011;19141;48.980;8.410;2023-04-24T09:26:47;1.00;;;0.90;;
32788;SDS011;19141;48.980;8.410;2023-04-24T09:29:14;1.52;;;0.90;;
32788;SDS011;19141;48.980;8.410;2023-04-24T09:31:43;0.80;;;0.80;;
32788;SDS011;19141;48.980;8.410;2023-04-24T09:34:10;1.38;;;1.08;;
32788;SDS011;19141;48.980;8.410;2023-04-24T09:36:36;1.20;;;1.10;;
32788;SDS011;19141;48.980;8.410;2023-04-24T09:39:10;1.42;;;1.23;;
32788;SDS011;19141;48.980;8.410;2023-04-24T09:41:56;2.30;;;1.10;;
32788;SDS011;19141;48.980;8.410;2023-04-24T09:44:25;3.22;;;1.35;;
32788;SDS011;19141;48.980;8.410;2023-04-24T09:46:58;2.22;;;1.40;;
32788;SDS011;19141;48.980;8.410;2023-04-24T09:49:25;2.28;;;1.33;;
32788;SDS011;19141;48.980;8.410;2023-04-24T09:51:52;1.80;;;1.58;;
32788;SDS011;19141;48.980;8.410;2023-04-24T09:54:27;2.70;;;1.35;;
32788;SDS011;19141;48.980;8.410;2023-04-24T09:56:52;2.45;;;1.20;;
32788;SDS011;19141;48.980;8.410;2023-04-24T09:59:19;1.70;;;1.25;;
32788;SDS011;19141;48.980;8.410;2023-04-24T10:01:45;1.52;;;1.25;;
32788;SDS011;19141;48.980;8.410;2023-04-24T10:06:47;1.25;;;1.15;;
32788;SDS011;19141;48.980;8.410;2023-04-24T10:09:14;1.30;;;1.20;;
32788;SDS011;19141;48.980;8.410;2023-04-24T10:11:41;2.03;;;1.35;;
32788;SDS011;19141;48.980;8.410;2023-04-24T10:14:09;2.78;;;1.08;;
32788;SDS011;19141;48.980;8.410;2023-04-24T10:16:37;1.42;;;0.95;;
32788;SDS011;19141;48.980;8.410;2023-04-24T10:19:03;1.23;;;0.73;;
32788;SDS011;19141;48.980;8.410;2023-04-24T10:21:29;1.95;;;1.00;;
32788;SDS011;19141;48.980;8.410;2023-04-24T10:23:55;1.42;;;1.10;;
32788;SDS011;19141;48.980;8.410;2023-04-24T10:26:21;1.38;;;1.20;;
32788;SDS011;19141;48.980;8.410;2023-04-24T10:28:48;1.23;;;0.95;;
32788;SDS011;19141;48.980;8.410;2023-04-24T10:31:13;1.63;;;1.10;;
32788;SDS011;19141;48.980;8.410;2023-04-24T10:33:40;1.67;;;1.08;;
32788;SDS011;19141;48.980;8.410;2023-04-24T10:36:09;1.85;;;0.98;;
32788;SDS011;19141;48.980;8.410;2023-04-24T10:38:35;1.33;;;1.08;;
32788;SDS011;19141;48.980;8.410;2023-04-24T10:41:07;1.17;;;1.00;;
32788;SDS011;19141;48.980;8.410;2023-04-24T10:43:34;3.78;;;1.10;;
32788;SDS011;19141;48.980;8.410;2023-04-24T10:46:01;1.88;;;1.23;;
32788;SDS011;19141;48.980;8.410;2023-04-24T10:48:28;2.33;;;1.50;;
32788;SDS011;19141;48.980;8.410;2023-04-24T10:50:53;2.35;;;2.00;;
32788;SDS011;19141;48.980;8.410;2023-04-24T10:53:19;1.23;;;1.08;;
32788;SDS011;19141;48.980;8.410;2023-04-24T10:55:50;1.98;;;1.27;;
32788;SDS011;19141;48.980;8.410;2023-04-24T10:58:17;3.03;;;1.20;;
32788;SDS011;19141;48.980;8.410;2023-04-24T11:00:55;1.23;;;1.10;;
32788;SDS011;19141;48.980;8.410;2023-04-24T11:03:26;1.20;;;1.10;;
32788;SDS011;19141;48.980;8.410;2023-04-24T11:06:02;0.88;;;0.82;;
32788;SDS011;19141;48.980;8.410;2023-04-24T11:08:33;0.90;;;0.75;;
32788;SDS011;19141;48.980;8.410;2023-04-24T11:19:03;1.20;;;1.05;;
32788;SDS011;19141;48.980;8.410;2023-04-24T11:21:57;1.60;;;1.13;;
32788;SDS011;19141;48.980;8.410;2023-04-24T11:29:58;1.92;;;1.52;;
32788;SDS011;19141;48.980;8.410;2023-04-24T11:32:41;1.50;;;1.40;;
32788;SDS011;19141;48.980;8.410;2023-04-24T11:37:48;2.03;;;1.67;;
32788;SDS011;19141;48.980;8.410;2023-04-24T11:40:15;3.10;;;2.20;;
32788;SDS011;19141;48.980;8.410;2023-04-24T11:42:43;2.58;;;2.03;;
32788;SDS011;19141;48.980;8.410;2023-04-24T11:45:10;2.63;;;2.20;;
32788;SDS011;19141;48.980;8.410;2023-04-24T11:47:37;2.42;;;1.75;;
32788;SDS011;19141;48.980;8.410;2023-04-24T11:50:03;3.08;;;2.58;;
32788;SDS011;19141;48.980;8.410;2023-04-24T11:52:31;2.97;;;1.70;;
32788;SDS011;19141;48.980;8.410;2023-04-24T11:54:56;2.78;;;2.15;;
32788;SDS011;19141;48.980;8.410;2023-04-24T11:57:23;4.90;;;2.40;;
32788;SDS011;19141;48.980;8.410;2023-04-24T11:59:51;2.80;;;1.98;;
32788;SDS011;19141;48.980;8.410;2023-04-24T12:02:23;2.60;;;2.15;;
32788;SDS011;19141;48.980;8.410;2023-04-24T12:04:50;2.65;;;2.10;;
32788;SDS011;19141;48.980;8.410;2023-04-24T12:07:17;2.60;;;2.10;;
32788;SDS011;19141;48.980;8.410;2023-04-24T12:12:10;3.50;;;2.25;;
32788;SDS011;19141;48.980;8.410;2023-04-24T12:14:43;2.23;;;1.70;;
32788;SDS011;19141;48.980;8.410;2023-04-24T12:17:08;1.63;;;1.48;;
32788;SDS011;19141;48.980;8.410;2023-04-24T12:19:33;2.72;;;1.60;;
32788;SDS011;19141;48.980;8.410;2023-04-24T12:21:59;2.08;;;1.42;;
32788;SDS011;19141;48.980;8.410;2023-04-24T12:24:26;2.95;;;1.50;;
32788;SDS011;19141;48.980;8.410;2023-04-24T12:26:51;1.85;;;1.40;;
32788;SDS011;19141;48.980;8.410;2023-04-24T12:29:21;2.67;;;1.73;;
32788;SDS011;19141;48.980;8.410;2023-04-24T12:31:47;3.30;;;1.20;;
32788;SDS011;19141;48.980;8.410;2023-04-24T12:34:22;2.80;;;1.60;;
32788;SDS011;19141;48.980;8.410;2023-04-24T12:36:50;1.48;;;1.38;;
32788;SDS011;19141;48.980;8.410;2023-04-24T12:39:19;2.22;;;1.45;;
32788;SDS011;19141;48.980;8.410;2023-04-24T12:41:57;1.67;;;1.40;;
32788;SDS011;19141;48.980;8.410;2023-04-24T12:44:30;2.70;;;1.25;;
32788;SDS011;19141;48.980;8.410;2023-04-24T12:46:56;1.55;;;1.38;;
32788;SDS011;19141;48.980;8.410;2023-04-24T12:49:22;1.65;;;1.30;;
32788;SDS011;19141;48.980;8.410;2023-04-24T12:51:47;1.90;;;1.55;;
32788;SDS011;19141;48.980;8.410;2023-04-24T12:54:13;1.73;;;1.40;;
32788;SDS011;19141;48.980;8.410;2023-04-24T12:56:38;1.75;;;1.10;;
32788;SDS011;19141;48.980;8.410;2023-04-24T12:59:04;1.45;;;1.30;;
32788;SDS011;19141;48.980;8.410;2023-04-24T13:01:30;1.70;;;1.30;;
32788;SDS011;19141;48.980;8.410;2023-04-24T13:03:56;1.75;;;1.20;;
32788;SDS011;19141;48.980;8.410;2023-04-24T13:06:21;1.70;;;1.38;;
32788;SDS011;19141;48.980;8.410;2023-04-24T13:08:46;2.85;;;1.27;;
32788;SDS011;19141;48.980;8.410;2023-04-24T13:11:13;2.97;;;1.77;;
32788;SDS011;19141;48.980;8.410;2023-04-24T13:13:39;1.55;;;1.20;;
32788;SDS011;19141;48.980;8.410;2023-04-24T13:16:05;1.92;;;1.40;;
32788;SDS011;19141;48.980;8.410;2023-04-24T13:18:30;1.60;;;1.42;;
32788;SDS011;19141;48.980;8.410;2023-04-24T13:20:55;1.35;;;1.13;;
32788;SDS011;19141;48.980;8.410;2023-04-24T13:23:21;1.75;;;1.05;;
32788;SDS011;19141;48.980;8.410;2023-04-24T13:25:48;1.90;;;1.45;;
32788;SDS011;19141;48.980;8.410;2023-04-24T13:28:13;2.20;;;1.38;;
32788;SDS011;19141;48.980;8.410;2023-04-24T13:30:38;1.40;;;1.30;;
32788;SDS011;19141;48.980;8.410;2023-04-24T13:33:04;1.55;;;1.15;;
32788;SDS011;19141;48.980;8.410;2023-04-24T13:35:29;0.95;;;0.90;;
32788;SDS011;19141;48.980;8.410;2023-04-24T13:37:55;1.40;;;1.20;;
32788;SDS011;19141;48.980;8.410;2023-04-24T13:40:21;1.58;;;1.33;;
32788;SDS011;19141;48.980;8.410;2023-04-24T13:42:46;1.70;;;1.40;;
32788;SDS011;19141;48.980;8.410;2023-04-24T13:45:12;1.65;;;1.40;;
32788;SDS011;19141;48.980;8.410;2023-04-24T13:47:37;1.88;;;1.23;;
32788;SDS011;19141;48.980;8.410;2023-04-24T13:50:06;2.40;;;1.40;;
32788;SDS011;19141;48.980;8.410;2023-04-24T13:54:58;2.55;;;1.23;;
32788;SDS011;19141;48.980;8.410;2023-04-24T13:57:24;7.13;;;1.55;;
32788;SDS011;19141;48.980;8.410;2023-04-24T13:59:49;2.42;;;1.42;;
32788;SDS011;19141;48.980;8.410;2023-04-24T14:02:15;1.13;;;1.02;;
32788;SDS011;19141;48.980;8.410;2023-04-24T14:04:40;2.78;;;1.38;;
32788;SDS011;19141;48.980;8.410;2023-04-24T14:07:05;1.83;;;1.25;;
32788;SDS011;19141;48.980;8.410;2023-04-24T14:09:31;1.27;;;1.13;;
32788;SDS011;19141;48.980;8.410;2023-04-24T14:11:56;1.67;;;1.02;;
32788;SDS011;19141;48.980;8.410;2023-04-24T14:14:22;1.67;;;1.20;;
32788;SDS011;19141;48.980;8.410;2023-04-24T14:16:48;1.33;;;1.20;;
32788;SDS011;19141;48.980;8.410;2023-04-24T14:19:13;1.63;;;1.05;;
32788;SDS011;19141;48.980;8.410;2023-04-24T14:21:38;1.20;;;1.05;;
32788;SDS011;19141;48.980;8.410;2023-04-24T14:24:04;1.92;;;0.95;;
32788;SDS011;19141;48.980;8.410;2023-04-24T14:26:29;1.63;;;1.27;;
32788;SDS011;19141;48.980;8.410;2023-04-24T14:28:55;1.00;;;0.90;;
32788;SDS011;19141;48.980;8.410;2023-04-24T14:31:20;1.45;;;1.27;;
32788;SDS011;19141;48.980;8.410;2023-04-24T14:33:46;1.35;;;0.90;;
32788;SDS011;19141;48.980;8.410;2023-04-24T14:36:11;1.45;;;1.20;;
32788;SDS011;19141;48.980;8.410;2023-04-24T14:38:36;1.15;;;1.02;;
32788;SDS011;19141;48.980;8.410;2023-04-24T14:41:02;1.20;;;1.00;;
32788;SDS011;19141;48.980;8.410;2023-04-24T14:43:34;1.02;;;0.88;;
32788;SDS011;19141;48.980;8.410;2023-04-24T14:46:00;0.70;;;0.70;;
32788;SDS011;19141;48.980;8.410;2023-04-24T14:48:25;1.30;;;0.95;;
32788;SDS011;19141;48.980;8.410;2023-04-24T14:50:50;0.85;;;0.80;;
32788;SDS011;19141;48.980;8.410;2023-04-24T14:53:16;0.80;;;0.80;;
32788;SDS011;19141;48.980;8.410;2023-04-24T14:55:41;1.23;;;1.13;;
32788;SDS011;19141;48.980;8.410;2023-04-24T14:58:07;0.98;;;0.75;;
32788;SDS011;19141;48.980;8.410;2023-04-24T15:00:32;1.33;;;0.90;;
32788;SDS011;19141;48.980;8.410;2023-04-24T15:03:00;1.67;;;1.00;;
32788;SDS011;19141;48.980;8.410;2023-04-24T15:05:25;1.85;;;1.27;;
32788;SDS011;19141;48.980;8.410;2023-04-24T15:07:51;2.08;;;1.45;;
32788;SDS011;19141;48.980;8.410;2023-04-24T15:10:16;1.02;;;0.90;;
32788;SDS011;19141;48.980;8.410;2023-04-24T15:12:42;1.02;;;0.90;;
32788;SDS011;19141;48.980;8.410;2023-04-24T15:15:08;1.10;;;0.85;;
32788;SDS011;19141;48.980;8.410;2023-04-24T15:17:34;1.42;;;1.13;;
32788;SDS011;19141;48.980;8.410;2023-04-24T15:20:00;2.03;;;1.25;;
32788;SDS011;19141;48.980;8.410;2023-04-24T15:22:26;1.58;;;1.10;;
32788;SDS011;19141;48.980;8.410;2023-04-24T15:24:51;1.25;;;0.93;;
32788;SDS011;19141;48.980;8.410;2023-04-24T15:27:17;1.95;;;1.30;;
32788;SDS011;19141;48.980;8.410;2023-04-24T15:29:42;0.77;;;0.77;;
32788;SDS011;19141;48.980;8.410;2023-04-24T15:32:08;0.70;;;0.70;;
32788;SDS011;19141;48.980;8.410;2023-04-24T15:34:33;0.80;;;0.75;;
32788;SDS011;19141;48.980;8.410;2023-04-24T15:36:59;1.08;;;0.98;;
32788;SDS011;19141;48.980;8.410;2023-04-24T15:39:25;1.10;;;1.00;;
32788;SDS011;19141;48.980;8.410;2023-04-24T15:41:52;0.93;;;0.82;;
32788;SDS011;19141;48.980;8.410;2023-04-24T15:44:21;3.05;;;1.00;;
32788;SDS011;19141;48.980;8.410;2023-04-24T15:46:46;1.20;;;1.10;;
32788;SDS011;19141;48.980;8.410;2023-04-24T15:49:12;1.05;;;0.80;;
32788;SDS011;19141;48.980;8.410;2023-04-24T15:51:37;1.60;;;1.20;;
32788;SDS011;19141;48.980;8.410;2023-04-24T15:54:03;1.40;;;0.90;;
32788;SDS011;19141;48.980;8.410;2023-04-24T15:56:28;0.95;;;0.70;;
32788;SDS011;19141;48.980;8.410;2023-04-24T15:58:53;0.98;;;0.90;;
32788;SDS011;19141;48.980;8.410;2023-04-24T16:01:19;0.80;;;0.80;;
32788;SDS011;19141;48.980;8.410;2023-04-24T16:03:45;1.55;;;1.00;;
32788;SDS011;19141;48.980;8.410;2023-04-24T16:06:11;1.98;;;1.00;;
32788;SDS011;19141;48.980;8.410;2023-04-24T16:08:36;2.85;;;1.38;;
32788;SDS011;19141;48.980;8.410;2023-04-24T16:11:01;0.70;;;0.70;;
32788;SDS011;19141;48.980;8.410;2023-04-24T16:13:27;1.05;;;0.95;;
32788;SDS011;19141;48.980;8.410;2023-04-24T16:15:53;1.00;;;0.90;;
32788;SDS011;19141;48.980;8.410;2023-04-24T16:18:19;1.88;;;1.55;;
32788;SDS011;19141;48.980;8.410;2023-04-24T16:20:45;1.45;;;1.20;;
32788;SDS011;19141;48.980;8.410;2023-04-24T16:23:10;1.27;;;0.98;;
32788;SDS011;19141;48.980;8.410;2023-04-24T16:25:36;1.73;;;1.25;;
32788;SDS011;19141;48.980;8.410;2023-04-24T16:28:01;1.85;;;0.90;;
32788;SDS011;19141;48.980;8.410;2023-04-24T16:30:27;1.08;;;0.98;;
32788;SDS011;19141;48.980;8.410;2023-04-24T16:32:52;1.10;;;1.00;;
32788;SDS011;19141;48.980;8.410;2023-04-24T16:35:18;0.90;;;0.82;;
32788;SDS011;19141;48.980;8.410;2023-04-24T16:37:43;1.50;;;1.08;;
32788;SDS011;19141;48.980;8.410;2023-04-24T16:40:09;1.40;;;0.82;;
32788;SDS011;19141;48.980;8.410;2023-04-24T16:42:35;1.88;;;1.13;;
32788;SDS011;19141;48.980;8.410;2023-04-24T16:45:01;2.35;;;1.10;;
32788;SDS011;19141;48.980;8.410;2023-04-24T16:47:27;1.90;;;1.13;;
32788;SDS011;19141;48.980;8.410;2023-04-24T16:49:52;2.03;;;0.90;;
32788;SDS011;19141;48.980;8.410;2023-04-24T16:52:18;1.27;;;0.90;;
32788;SDS011;19141;48.980;8.410;2023-04-24T16:54:43;1.55;;;0.85;;
32788;SDS011;19141;48.980;8.410;2023-04-24T16:57:08;2.28;;;1.02;;
32788;SDS011;19141;48.980;8.410;2023-04-24T16:59:34;0.80;;;0.70;;
32788;SDS011;19141;48.980;8.410;2023-04-24T17:01:59;0.82;;;0.73;;
32788;SDS011;19141;48.980;8.410;2023-04-24T17:04:25;1.08;;;0.88;;
32788;SDS011;19141;48.980;8.410;2023-04-24T17:06:51;1.60;;;1.20;;
32788;SDS011;19141;48.980;8.410;2023-04-24T17:09:16;1.60;;;1.30;;
32788;SDS011;19141;48.980;8.410;2023-04-24T17:11:42;2.35;;;1.30;;
32788;SDS011;19141;48.980;8.410;2023-04-24T17:14:07;1.13;;;0.90;;
32788;SDS011;19141;48.980;8.410;2023-04-24T17:16:33;1.25;;;0.90;;
32788;SDS011;19141;48.980;8.410;2023-04-24T17:18:59;1.33;;;1.02;;
32788;SDS011;19141;48.980;8.410;2023-04-24T17:21:25;2.28;;;1.02;;
32788;SDS011;19141;48.980;8.410;2023-04-24T17:23:52;1.60;;;1.37;;
32788;SDS011;19141;48.980;8.410;2023-04-24T17:26:17;1.45;;;1.10;;
32788;SDS011;19141;48.980;8.410;2023-04-24T17:28:43;1.75;;;1.40;;
32788;SDS011;19141;48.980;8.410;2023-04-24T17:31:09;1.05;;;0.95;;
32788;SDS011;19141;48.980;8.410;2023-04-24T17:33:34;1.40;;;1.17;;
32788;SDS011;19141;48.980;8.410;2023-04-24T17:35:59;1.38;;;1.27;;
32788;SDS011;19141;48.980;8.410;2023-04-24T17:38:29;2.75;;;1.77;;
32788;SDS011;19141;48.980;8.410;2023-04-24T17:40:54;2.10;;;1.88;;
32788;SDS011;19141;48.980;8.410;2023-04-24T17:43:21;2.83;;;1.38;;
32788;SDS011;19141;48.980;8.410;2023-04-24T17:45:48;1.92;;;1.38;;
32788;SDS011;19141;48.980;8.410;2023-04-24T17:48:15;1.80;;;1.50;;
32788;SDS011;19141;48.980;8.410;2023-04-24T17:50:42;1.88;;;1.60;;
32788;SDS011;19141;48.980;8.410;2023-04-24T17:53:07;1.20;;;1.10;;
32788;SDS011;19141;48.980;8.410;2023-04-24T17:55:34;1.38;;;1.10;;
32788;SDS011;19141;48.980;8.410;2023-04-24T17:58:00;1.73;;;1.40;;
32788;SDS011;19141;48.980;8.410;2023-04-24T18:00:27;2.05;;;1.40;;
32788;SDS011;19141;48.980;8.410;2023-04-24T18:02:53;2.00;;;1.48;;
32788;SDS011;19141;48.980;8.410;2023-04-24T18:05:25;3.20;;;1.33;;
32788;SDS011;19141;48.980;8.410;2023-04-24T18:07:54;2.08;;;1.30;;
32788;SDS011;19141;48.980;8.410;2023-04-24T18:10:20;1.63;;;1.27;;
32788;SDS011;19141;48.980;8.410;2023-04-24T18:12:46;1.88;;;1.40;;
32788;SDS011;19141;48.980;8.410;2023-04-24T18:15:12;1.65;;;1.27;;
32788;SDS011;19141;48.980;8.410;2023-04-24T18:17:37;1.55;;;1.38;;
32788;SDS011;19141;48.980;8.410;2023-04-24T18:20:03;2.28;;;1.45;;
32788;SDS011;19141;48.980;8.410;2023-04-24T18:22:28;1.33;;;1.20;;
32788;SDS011;19141;48.980;8.410;2023-04-24T18:24:54;2.10;;;1.70;;
32788;SDS011;19141;48.980;8.410;2023-04-24T18:27:19;2.67;;;1.50;;
32788;SDS011;19141;48.980;8.410;2023-04-24T18:29:45;1.92;;;1.38;;
32788;SDS011;19141;48.980;8.410;2023-04-24T18:32:10;4.93;;;2.97;;
32788;SDS011;19141;48.980;8.410;2023-04-24T18:34:35;1.83;;;1.40;;
32788;SDS011;19141;48.980;8.410;2023-04-24T18:37:01;2.15;;;1.63;;
32788;SDS011;19141;48.980;8.410;2023-04-24T18:39:26;2.20;;;1.45;;
32788;SDS011;19141;48.980;8.410;2023-04-24T18:41:52;2.08;;;1.58;;
32788;SDS011;19141;48.980;8.410;2023-04-24T18:44:18;2.90;;;1.70;;
32788;SDS011;19141;48.980;8.410;2023-04-24T18:46:44;2.63;;;2.03;;
32788;SDS011;19141;48.980;8.410;2023-04-24T18:49:09;1.38;;;1.27;;
32788;SDS011;19141;48.980;8.410;2023-04-24T18:51:35;3.33;;;1.90;;
32788;SDS011;19141;48.980;8.410;2023-04-24T18:54:00;4.40;;;2.35;;
32788;SDS011;19141;48.980;8.410;2023-04-24T18:56:26;3.42;;;1.73;;
32788;SDS011;19141;48.980;8.410;2023-04-24T18:58:51;3.13;;;1.90;;
32788;SDS011;19141;48.980;8.410;2023-04-24T19:01:19;2.13;;;1.70;;
32788;SDS011;19141;48.980;8.410;2023-04-24T19:03:45;1.73;;;1.35;;
32788;SDS011;19141;48.980;8.410;2023-04-24T19:06:10;2.47;;;1.58;;
32788;SDS011;19141;48.980;8.410;2023-04-24T19:08:36;2.25;;;1.73;;
32788;SDS011;19141;48.980;8.410;2023-04-24T19:11:02;2.67;;;1.70;;
32788;SDS011;19141;48.980;8.410;2023-04-24T19:13:29;2.72;;;1.75;;
32788;SDS011;19141;48.980;8.410;2023-04-24T19:15:54;2.20;;;1.70;;
32788;SDS011;19141;48.980;8.410;2023-04-24T19:18:20;3.92;;;2.00;;
32788;SDS011;19141;48.980;8.410;2023-04-24T19:20:45;1.40;;;1.30;;
32788;SDS011;19141;48.980;8.410;2023-04-24T19:23:10;2.78;;;1.70;;
32788;SDS011;19141;48.980;8.410;2023-04-24T19:25:36;1.70;;;1.55;;
32788;SDS011;19141;48.980;8.410;2023-04-24T19:28:02;2.47;;;1.73;;
32788;SDS011;19141;48.980;8.410;2023-04-24T19:30:27;2.80;;;1.70;;
32788;SDS011;19141;48.980;8.410;2023-04-24T19:32:52;1.75;;;1.30;;